Time;durP1;ratioP1;P1;durP2;ratioP2;P2;SDS_P1;SDS_P2;PMS_P1;PMS_P2;Temp;Humidity;BMP_temperature;BMP_pressure;BME280_temperature;BME280_humidity;BME280_pressure;Samples;Min_cycle;Max_cycle;Signal;HPM_P1;HPM_P2
2024/01/26 00:01:58;;;;;;;;;0.00;0.00;;;;;13.12;100.00;102453.50;5095956;27;56865;-87
2024/01/26 00:04:23;;;;;;;;;0.00;0.00;;;;;13.09;100.00;102458.78;5094923;27;46138;-87
2024/01/26 00:06:48;;;;;;;;;1.00;1.00;;;;;13.05;100.00;102462.31;5095884;27;69505;-87
2024/01/26 00:09:15;;;;;;;;;0.00;0.00;;;;;13.04;100.00;102450.13;5096252;27;45237;-87
2024/01/26 00:11:41;;;;;;;;;0.00;0.00;;;;;13.05;100.00;102458.84;5094238;27;45330;-87
2024/01/26 00:14:07;;;;;;;;;0.00;0.00;;;;;13.02;100.00;102449.28;5094981;27;46422;-87
2024/01/26 00:16:33;;;;;;;;;0.00;0.00;;;;;12.97;100.00;102443.25;5099180;27;45562;-87
2024/01/26 00:18:58;;;;;;;;;0.00;0.00;;;;;12.95;100.00;102451.09;5112438;27;45436;-86
2024/01/26 00:21:24;;;;;;;;;0.00;0.00;;;;;12.96;100.00;102450.22;5112772;27;45444;-87
2024/01/26 00:23:50;;;;;;;;;0.00;0.00;;;;;12.96;100.00;102434.53;5114328;27;47070;-88
2024/01/26 00:26:15;;;;;;;;;0.00;0.00;;;;;12.96;100.00;102425.81;5095314;27;55202;-87
2024/01/26 00:28:41;;;;;;;;;0.00;0.00;;;;;13.00;100.00;102424.03;5094965;27;45420;-87
2024/01/26 00:31:06;;;;;;;;;3.00;3.00;;;;;13.02;100.00;102419.66;5095072;27;66406;-86
2024/01/26 00:33:32;;;;;;;;;0.00;0.00;;;;;13.06;100.00;102413.53;5096399;27;45338;-85
2024/01/26 00:35:57;;;;;;;;;0.00;0.00;;;;;13.08;100.00;102424.81;5093231;27;45542;-87
2024/01/26 00:38:23;;;;;;;;;0.00;0.00;;;;;13.13;100.00;102434.34;5096305;27;45275;-87
2024/01/26 00:40:48;;;;;;;;;0.00;0.00;;;;;13.17;100.00;102427.31;5098049;27;53822;-87
2024/01/26 00:43:14;;;;;;;;;0.00;0.00;;;;;13.23;100.00;102432.47;5094127;27;64993;-87
2024/01/26 00:45:39;;;;;;;;;0.00;0.00;;;;;13.25;100.00;102427.22;5094846;27;55592;-87
2024/01/26 00:48:05;;;;;;;;;0.00;0.00;;;;;13.27;100.00;102420.22;5080832;27;52160;-87
2024/01/26 00:50:30;;;;;;;;;0.00;0.00;;;;;13.27;100.00;102418.47;5099408;27;45291;-87
2024/01/26 00:52:56;;;;;;;;;0.00;0.00;;;;;13.29;100.00;102418.44;5097322;27;53757;-86
2024/01/26 00:55:22;;;;;;;;;0.00;0.00;;;;;13.31;100.00;102412.31;5098884;27;45375;-87
2024/01/26 00:57:48;;;;;;;;;0.00;0.00;;;;;13.31;100.00;102398.38;5098833;27;45536;-87
2024/01/26 01:00:14;;;;;;;;;0.00;0.00;;;;;13.32;100.00;102400.13;5097906;27;45381;-85
2024/01/26 01:02:39;;;;;;;;;0.00;0.00;;;;;13.33;100.00;102394.88;5097980;27;46278;-87
2024/01/26 01:05:06;;;;;;;;;0.00;0.00;;;;;13.34;100.00;102398.34;5097396;27;45921;-86
2024/01/26 01:07:32;;;;;;;;;0.00;0.00;;;;;13.35;100.00;102397.47;5099199;27;45311;-86
2024/01/26 01:09:57;;;;;;;;;0.00;0.00;;;;;13.36;100.00;102397.44;5099673;27;45451;-85
2024/01/26 01:12:23;;;;;;;;;0.00;0.00;;;;;13.38;100.00;102391.34;5097836;27;45321;-85
2024/01/26 01:14:49;;;;;;;;;0.00;0.00;;;;;13.41;100.00;102405.25;5098268;27;45342;-85
2024/01/26 01:17:14;;;;;;;;;0.00;0.00;;;;;13.42;100.00;102400.88;5114560;27;57254;-85
2024/01/26 01:19:39;;;;;;;;;0.00;0.00;;;;;13.47;100.00;102399.06;5096859;27;45400;-85
2024/01/26 01:22:05;;;;;;;;;0.00;0.00;;;;;13.48;100.00;102392.91;5101268;27;45416;-85
2024/01/26 01:24:31;;;;;;;;;0.00;0.00;;;;;13.44;100.00;102381.63;5097793;27;45404;-85
2024/01/26 01:26:56;;;;;;;;;0.00;0.00;;;;;13.48;100.00;102385.06;5098187;27;45422;-85
2024/01/26 01:29:22;;;;;;;;;0.00;0.00;;;;;13.49;100.00;102385.06;5098221;27;45481;-85
2024/01/26 01:31:47;;;;;;;;;0.00;0.00;;;;;13.51;100.00;102398.13;5079879;27;70305;-85
2024/01/26 01:34:12;;;;;;;;;0.00;0.00;;;;;13.53;100.00;102402.41;5096670;27;45468;-85
2024/01/26 01:36:38;;;;;;;;;0.00;0.00;;;;;13.53;100.00;102399.81;5097572;27;48199;-86
2024/01/26 01:39:03;;;;;;;;;0.00;0.00;;;;;13.52;100.00;102394.59;5097312;27;64447;-86
2024/01/26 01:41:28;;;;;;;;;0.00;0.00;;;;;13.58;100.00;102391.03;5080291;27;59908;-85
2024/01/26 01:43:54;;;;;;;;;0.00;0.00;;;;;13.59;100.00;102400.63;5090065;27;66132;-85
2024/01/26 01:46:20;;;;;;;;;0.00;0.00;;;;;13.59;100.00;102396.22;5099065;27;45423;-84
2024/01/26 01:48:45;;;;;;;;;0.00;0.00;;;;;13.61;100.00;102411.91;5090179;27;45366;-85
2024/01/26 01:51:13;;;;;;;;;0.00;0.00;;;;;13.61;100.00;102412.78;5093458;27;54771;-85
2024/01/26 01:53:38;;;;;;;;;0.00;0.00;;;;;13.61;100.00;102406.69;5089684;27;46539;-85
2024/01/26 01:56:05;;;;;;;;;3.00;3.00;;;;;13.64;100.00;102399.66;5119120;27;57746;-86
2024/01/26 01:58:31;;;;;;;;;0.00;0.00;;;;;13.65;100.00;102392.66;5083903;27;44791;-85
2024/01/26 02:00:57;;;;;;;;;0.00;0.00;;;;;13.65;100.00;102387.44;5097694;27;45377;-87
2024/01/26 02:03:22;;;;;;;;;0.00;0.00;;;;;13.67;100.00;102397.00;5094568;27;62810;-87
2024/01/26 02:05:48;;;;;;;;;0.00;0.00;;;;;13.69;100.00;102396.97;5095047;27;52812;-86
2024/01/26 02:08:13;;;;;;;;;0.00;0.00;;;;;13.72;100.00;102396.91;5090803;27;45507;-86
2024/01/26 02:10:39;;;;;;;;;1.50;1.50;;;;;13.71;100.00;102393.44;5090909;27;46234;-86
2024/01/26 02:13:04;;;;;;;;;0.00;0.00;;;;;13.74;100.00;102392.53;5094733;27;47330;-86
2024/01/26 02:15:29;;;;;;;;;0.00;0.00;;;;;13.71;100.00;102376.88;5084629;27;56808;-86
2024/01/26 02:17:54;;;;;;;;;0.00;0.00;;;;;13.76;100.00;102377.66;5092224;27;61462;-87
2024/01/26 02:20:20;;;;;;;;;0.00;0.00;;;;;13.78;100.00;102375.00;5077389;27;45550;-86
2024/01/26 02:22:45;;;;;;;;;0.00;0.00;;;;;13.79;100.00;102385.47;5076397;28;45400;-86
2024/01/26 02:25:11;;;;;;;;;0.00;0.00;;;;;13.77;100.00;102384.63;5076868;28;45363;-87
2024/01/26 02:27:36;;;;;;;;;3.00;3.00;;;;;13.79;100.00;102388.09;5093824;27;45360;-87
2024/01/26 02:30:02;;;;;;;;;0.00;0.00;;;;;13.79;100.00;102382.84;5076499;28;47316;-87
2024/01/26 02:32:27;;;;;;;;;0.00;0.00;;;;;13.78;100.00;102369.78;5075812;27;45508;-86
2024/01/26 02:34:53;;;;;;;;;0.00;0.00;;;;;13.75;100.00;102362.84;5075878;28;59780;-86
2024/01/26 02:37:18;;;;;;;;;0.00;0.00;;;;;13.78;100.00;102368.06;5058955;28;60282;-86
2024/01/26 02:39:43;;;;;;;;;0.00;0.00;;;;;13.78;100.00;102370.66;5075530;28;63028;-87
2024/01/26 02:42:09;;;;;;;;;0.00;0.00;;;;;13.82;100.00;102371.44;5076740;27;67973;-86
2024/01/26 02:44:34;;;;;;;;;0.00;0.00;;;;;13.81;100.00;102373.22;5075693;28;59733;-86
2024/01/26 02:47:00;;;;;;;;;0.00;0.00;;;;;13.79;100.00;102361.91;5076128;28;45520;-85
2024/01/26 02:49:25;;;;;;;;;0.00;0.00;;;;;13.84;100.00;102369.69;5085883;27;47222;-86
2024/01/26 02:51:51;;;;;;;;;0.00;0.00;;;;;13.81;100.00;102354.88;5077293;27;45313;-86
2024/01/26 02:54:16;;;;;;;;;0.00;0.00;;;;;13.82;100.00;102351.41;5093233;27;45489;-86
2024/01/26 02:56:41;;;;;;;;;0.00;0.00;;;;;13.81;100.00;102357.50;5076899;28;56783;-86
2024/01/26 02:59:07;;;;;;;;;0.00;0.00;;;;;13.82;100.00;102358.38;5092575;27;69247;-87
2024/01/26 03:01:32;;;;;;;;;0.00;0.00;;;;;13.83;100.00;102355.72;5092554;27;45310;-87
2024/01/26 03:03:59;;;;;;;;;0.00;0.00;;;;;13.79;100.00;102354.06;5092285;27;59484;-86
2024/01/26 03:06:24;;;;;;;;;0.00;0.00;;;;;13.79;100.00;102356.69;5089294;27;45641;-86
2024/01/26 03:08:49;;;;;;;;;0.00;0.00;;;;;13.74;100.00;102348.91;5099182;27;45545;-86
2024/01/26 03:11:15;;;;;;;;;3.00;3.00;;;;;13.76;100.00;102367.19;5096975;27;55380;-85
2024/01/26 03:13:40;;;;;;;;;0.00;0.00;;;;;13.81;100.00;102370.59;5096660;27;63148;-86
2024/01/26 03:16:05;;;;;;;;;0.00;0.00;;;;;13.85;100.00;102360.94;5097366;27;45535;-86
2024/01/26 03:18:31;;;;;;;;;0.00;0.00;;;;;13.97;100.00;102367.72;5099119;27;65817;-86
2024/01/26 03:20:56;;;;;;;;;0.00;0.00;;;;;13.89;100.00;102368.75;5096157;27;45497;-87
2024/01/26 03:23:22;;;;;;;;;0.00;0.00;;;;;13.89;100.00;102366.13;5087903;27;45310;-85
2024/01/26 03:25:47;;;;;;;;;0.00;0.00;;;;;13.90;100.00;102346.88;5076274;27;54624;-86
2024/01/26 03:28:12;;;;;;;;;0.00;0.00;;;;;13.92;100.00;102350.34;5076727;28;45554;-86
2024/01/26 03:30:43;;;;;;;;;0.00;0.00;;;;;13.93;100.00;102348.59;5076284;27;62171;-86
2024/01/26 03:33:09;;;;;;;;;0.00;0.00;;;;;13.92;100.00;102336.41;5076967;27;45532;-87
2024/01/26 03:35:34;;;;;;;;;0.00;0.00;;;;;13.93;100.00;102349.47;5075947;27;45368;-87
2024/01/26 03:37:59;;;;;;;;;0.00;0.00;;;;;13.89;100.00;102342.56;5076465;27;58441;-87
2024/01/26 03:40:25;;;;;;;;;0.00;0.00;;;;;13.91;100.00;102352.97;5086365;27;70423;-87
2024/01/26 03:42:51;;;;;;;;;0.00;0.00;;;;;13.86;100.00;102336.50;5094383;27;45264;-86
2024/01/26 03:45:17;;;;;;;;;0.00;0.00;;;;;13.87;100.00;102328.63;5094334;27;45627;-87
2024/01/26 03:47:42;;;;;;;;;0.00;0.00;;;;;13.88;100.00;102322.50;5096826;27;46179;-86
2024/01/26 03:50:08;;;;;;;;;0.00;0.00;;;;;13.87;100.00;102325.13;5102146;27;69904;-86
2024/01/26 03:52:33;;;;;;;;;0.00;0.00;;;;;13.88;100.00;102335.59;5096124;27;45360;-86
2024/01/26 03:54:58;;;;;;;;;0.00;0.00;;;;;13.89;100.00;102333.81;5097815;27;45423;-86
2024/01/26 03:57:24;;;;;;;;;0.00;0.00;;;;;13.90;100.00;102330.31;5096236;27;45937;-87
2024/01/26 03:59:49;;;;;;;;;1.00;1.00;;;;;13.91;100.00;102330.31;5096706;27;45228;-86
2024/01/26 04:02:16;;;;;;;;;0.00;0.00;;;;;13.89;100.00;102321.63;5096584;27;61784;-86
2024/01/26 04:04:42;;;;;;;;;0.00;0.00;;;;;13.91;100.00;102319.84;5096558;27;45356;-86
2024/01/26 04:07:08;;;;;;;;;0.00;0.00;;;;;13.93;100.00;102323.28;5096036;27;63999;-86
2024/01/26 04:09:33;;;;;;;;;0.00;0.00;;;;;13.92;100.00;102321.53;5096293;27;45424;-87
2024/01/26 04:11:59;;;;;;;;;0.00;0.00;;;;;13.96;100.00;102316.25;5095367;27;45474;-86
2024/01/26 04:14:24;;;;;;;;;0.00;0.00;;;;;13.94;100.00;102321.53;5094670;27;58942;-86
2024/01/26 04:16:50;;;;;;;;;0.00;0.00;;;;;13.94;100.00;102318.91;5094737;27;65933;-86
2024/01/26 04:19:15;;;;;;;;;0.00;0.00;;;;;13.92;100.00;102311.06;5096460;27;45637;-86
2024/01/26 04:21:41;;;;;;;;;0.00;0.00;;;;;13.95;100.00;102310.16;5104064;27;45328;-86
2024/01/26 04:24:07;;;;;;;;;0.00;0.00;;;;;13.98;100.00;102309.25;5116516;27;45295;-86
2024/01/26 04:26:32;;;;;;;;;1.00;1.00;;;;;13.96;100.00;102316.25;5099509;27;46419;-86
2024/01/26 04:28:58;;;;;;;;;0.00;0.00;;;;;13.97;100.00;102311.00;5097864;27;70090;-87
2024/01/26 04:31:24;;;;;;;;;0.00;0.00;;;;;13.94;100.00;102308.44;5098841;27;45768;-86
2024/01/26 04:33:50;;;;;;;;;0.00;0.00;;;;;13.92;100.00;102321.53;5099389;27;45405;-86
2024/01/26 04:36:16;;;;;;;;;0.00;0.00;;;;;13.91;100.00;102321.56;5100308;27;46212;-87
2024/01/26 04:38:41;;;;;;;;;0.50;0.50;;;;;13.99;100.00;102306.59;5099900;27;45597;-86
2024/01/26 04:41:07;;;;;;;;;0.00;0.00;;;;;13.97;100.00;102328.44;5098911;27;45661;-86
2024/01/26 04:43:32;;;;;;;;;0.00;0.00;;;;;13.96;100.00;102324.13;5097296;27;47923;-86
2024/01/26 04:45:58;;;;;;;;;0.00;0.00;;;;;14.03;100.00;102323.97;5098768;27;46258;-86
2024/01/26 04:48:23;;;;;;;;;0.00;0.00;;;;;14.04;100.00;102335.31;5098521;27;45413;-87
2024/01/26 04:50:48;;;;;;;;;0.00;0.00;;;;;13.96;100.00;102335.44;5098994;27;45533;-86
2024/01/26 04:53:15;;;;;;;;;0.00;0.00;;;;;13.90;100.00;102346.03;5099102;27;64559;-86
2024/01/26 04:55:41;;;;;;;;;0.00;0.00;;;;;13.99;100.00;102345.03;5098544;27;46448;-86
2024/01/26 04:58:06;;;;;;;;;9.00;9.00;;;;;13.95;100.00;102346.81;5098324;27;45395;-86
2024/01/26 05:00:31;;;;;;;;;0.00;0.00;;;;;13.98;100.00;102345.91;5093735;27;61227;-86
2024/01/26 05:02:57;;;;;;;;;0.00;0.00;;;;;14.02;100.00;102339.72;5078797;28;45421;-86
2024/01/26 05:05:23;;;;;;;;;0.00;0.00;;;;;14.01;100.00;102338.84;5078470;28;60479;-86
2024/01/26 05:07:48;;;;;;;;;0.00;0.00;;;;;13.99;100.00;102343.25;5077751;28;45380;-86
2024/01/26 05:10:15;;;;;;;;;0.00;0.00;;;;;13.98;100.00;102344.13;5111735;27;48511;-87
2024/01/26 05:12:40;;;;;;;;;0.00;0.00;;;;;14.01;100.00;102328.38;5076316;27;45567;-87
2024/01/26 05:15:09;;;;;;;;;0.00;0.00;;;;;13.99;100.00;102324.94;5093695;27;69199;-85
2024/01/26 05:17:35;;;;;;;;;0.00;0.00;;;;;13.96;100.00;102317.13;5078812;27;45358;-86
2024/01/26 05:20:00;;;;;;;;;0.00;0.00;;;;;13.96;100.00;102317.13;5094691;27;45506;-87
2024/01/26 05:22:26;;;;;;;;;0.00;0.00;;;;;13.94;100.00;102324.13;5077498;28;53036;-86
2024/01/26 05:24:51;;;;;;;;;0.00;0.00;;;;;14.01;100.00;102309.19;5076683;28;67925;-86
2024/01/26 05:27:16;;;;;;;;;0.00;0.00;;;;;14.02;100.00;102314.41;5079429;27;61843;-85
2024/01/26 05:29:41;;;;;;;;;0.00;0.00;;;;;14.04;100.00;102319.59;5098454;27;51168;-87
2024/01/26 05:32:07;;;;;;;;;0.00;0.00;;;;;14.06;100.00;102315.19;5096916;27;45535;-86
2024/01/26 05:34:32;;;;;;;;;0.00;0.00;;;;;14.09;100.00;102321.22;5080355;27;47061;-86
2024/01/26 05:36:58;;;;;;;;;2.00;2.00;;;;;14.12;100.00;102318.56;5097632;27;45412;-86
2024/01/26 05:39:23;;;;;;;;;0.00;0.00;;;;;14.13;100.00;102324.66;5097960;27;66558;-87
2024/01/26 05:41:48;;;;;;;;;0.00;0.00;;;;;14.14;100.00;102332.50;5098136;27;49095;-86
2024/01/26 05:44:14;;;;;;;;;0.00;0.00;;;;;14.14;100.00;102334.25;5095660;27;47020;-86
2024/01/26 05:46:39;;;;;;;;;1.00;1.00;;;;;14.13;100.00;102338.63;5097592;27;45436;-86
2024/01/26 05:49:04;;;;;;;;;0.00;0.00;;;;;14.15;100.00;102338.59;5093710;27;61688;-87
2024/01/26 05:51:30;;;;;;;;;0.00;0.00;;;;;14.15;100.00;102343.81;5096937;27;63337;-86
2024/01/26 05:53:55;;;;;;;;;0.00;0.00;;;;;14.12;100.00;102336.03;5096501;27;66258;-86
2024/01/26 05:56:21;;;;;;;;;0.00;0.00;;;;;14.03;100.00;102344.91;5096987;27;45357;-85
2024/01/26 05:58:47;;;;;;;;;0.00;0.00;;;;;14.12;100.00;102336.03;5097447;27;45380;-86
2024/01/26 06:01:13;;;;;;;;;0.00;0.00;;;;;14.13;100.00;102346.50;5096972;27;53176;-87
2024/01/26 06:03:38;;;;;;;;;0.00;0.00;;;;;14.12;100.00;102344.75;5097257;27;45653;-85
2024/01/26 06:06:03;;;;;;;;;0.00;0.00;;;;;14.14;100.00;102347.34;5095987;27;72170;-86
2024/01/26 06:08:29;;;;;;;;;0.00;0.00;;;;;14.16;100.00;102348.19;5098388;27;45443;-86
2024/01/26 06:10:56;;;;;;;;;0.00;0.00;;;;;14.19;100.00;102352.50;5096806;27;45444;-86
2024/01/26 06:13:22;;;;;;;;;0.00;0.00;;;;;14.18;100.00;102356.03;5096323;27;46160;-86
2024/01/26 06:15:48;;;;;;;;;0.00;0.00;;;;;14.21;100.00;102355.94;5096993;27;45431;-86
2024/01/26 06:18:13;;;;;;;;;0.00;0.00;;;;;14.17;100.00;102359.50;5079979;27;45598;-86
2024/01/26 06:20:39;;;;;;;;;0.00;0.00;;;;;14.16;100.00;102350.81;5094635;27;45339;-86
2024/01/26 06:23:04;;;;;;;;;0.00;0.00;;;;;14.11;100.00;102357.88;5079752;27;47210;-86
2024/01/26 06:25:30;;;;;;;;;0.00;0.00;;;;;14.17;100.00;102343.81;5096779;27;45363;-86
2024/01/26 06:27:55;;;;;;;;;0.00;0.00;;;;;14.16;100.00;102353.41;5080047;27;45371;-86
2024/01/26 06:30:21;;;;;;;;;0.00;0.00;;;;;14.16;100.00;102361.28;5098348;27;45683;-86
2024/01/26 06:32:46;;;;;;;;;0.00;0.00;;;;;14.16;100.00;102350.81;5097932;27;59289;-87
2024/01/26 06:35:11;;;;;;;;;0.00;0.00;;;;;14.16;100.00;102355.19;5098844;27;45416;-86
2024/01/26 06:37:36;;;;;;;;;0.00;0.00;;;;;14.14;100.00;102363.06;5103786;27;64791;-86
2024/01/26 06:40:02;;;;;;;;;0.00;0.00;;;;;14.16;100.00;102363.03;5114122;27;61390;-87
2024/01/26 06:42:30;;;;;;;;;0.00;0.00;;;;;14.18;100.00;102372.59;5115264;27;45407;-86
2024/01/26 06:44:55;;;;;;;;;0.00;0.00;;;;;14.19;100.00;102362.97;5101608;27;45434;-86
2024/01/26 06:47:21;;;;;;;;;1.33;1.33;;;;;14.23;100.00;102367.28;5096242;27;45341;-86
2024/01/26 06:49:46;;;;;;;;;0.00;0.00;;;;;14.21;100.00;102369.91;5091891;27;52326;-83
2024/01/26 06:52:12;;;;;;;;;0.00;0.00;;;;;14.23;100.00;102372.53;5093527;27;75730;-82
2024/01/26 06:54:40;;;;;;;;;0.00;0.00;;;;;14.21;100.00;102379.50;5093564;27;71807;-83
2024/01/26 06:57:06;;;;;;;;;0.50;0.50;;;;;14.21;100.00;102377.78;5093218;27;45354;-83
2024/01/26 06:59:32;;;;;;;;;0.00;0.00;;;;;14.25;100.00;102370.72;5075529;28;45385;-83
2024/01/26 07:01:58;;;;;;;;;0.00;0.00;;;;;14.25;100.00;102376.81;5094114;27;47584;-84
2024/01/26 07:04:23;;;;;;;;;0.00;0.00;;;;;14.27;100.00;102376.81;5086884;27;45505;-84
2024/01/26 07:06:49;;;;;;;;;0.00;0.00;;;;;14.33;100.00;102389.78;5082554;27;45393;-83
2024/01/26 07:09:14;;;;;;;;;0.00;0.00;;;;;14.25;100.00;102382.06;5084223;27;70394;-84
2024/01/26 07:11:39;;;;;;;;;0.00;0.00;;;;;14.24;100.00;102382.94;5089812;27;69699;-83
2024/01/26 07:14:05;;;;;;;;;0.00;0.00;;;;;14.28;100.00;102387.25;5091983;27;58437;-84
2024/01/26 07:16:30;;;;;;;;;0.00;0.00;;;;;14.18;100.00;102390.06;5091281;27;45471;-83
2024/01/26 07:18:55;;;;;;;;;0.00;0.00;;;;;14.14;100.00;102374.41;5083255;27;68724;-83
2024/01/26 07:21:21;;;;;;;;;0.00;0.00;;;;;14.05;100.00;102378.94;5089356;27;73671;-85
2024/01/26 07:23:49;;;;;;;;;0.00;0.00;;;;;13.94;100.00;102390.44;5091281;27;45574;-87
2024/01/26 07:26:19;;;;;;;;;0.00;0.00;;;;;13.90;100.00;102385.28;5095194;27;45357;-84
2024/01/26 07:28:44;;;;;;;;;0.00;0.00;;;;;13.86;100.00;102399.34;5094849;27;45566;-85
2024/01/26 07:31:10;;;;;;;;;0.00;0.00;;;;;13.80;100.00;102389.81;5079418;27;46193;-85
2024/01/26 07:33:35;;;;;;;;;0.00;0.00;;;;;13.80;100.00;102389.81;5086694;27;65129;-85
2024/01/26 07:36:00;;;;;;;;;0.00;0.00;;;;;13.81;100.00;102396.78;5086196;27;67504;-84
2024/01/26 07:38:26;;;;;;;;;0.00;0.00;;;;;13.74;100.00;102397.75;5081193;27;67079;-85
2024/01/26 07:40:51;;;;;;;;;0.00;0.00;;;;;13.74;100.00;102402.97;5080657;27;73745;-84
2024/01/26 07:43:16;;;;;;;;;0.00;0.00;;;;;13.70;100.00;102419.63;5087513;27;45835;-84
2024/01/26 07:45:41;;;;;;;;;0.00;0.00;;;;;13.73;100.00;102398.66;5085477;27;58581;-86
2024/01/26 07:48:08;;;;;;;;;0.00;0.00;;;;;13.66;100.00;102404.88;5084104;27;66196;-87
2024/01/26 07:50:34;;;;;;;;;0.00;0.00;;;;;13.68;100.00;102398.72;5088368;27;47171;-86
2024/01/26 07:52:59;;;;;;;;;0.00;0.00;;;;;13.68;100.00;102401.34;5092115;27;72110;-86
2024/01/26 07:55:24;;;;;;;;;0.00;0.00;;;;;13.66;100.00;102418.81;5086665;27;66734;-86
2024/01/26 07:57:50;;;;;;;;;0.00;0.00;;;;;13.70;100.00;102422.25;5111597;27;45418;-86
2024/01/26 08:00:17;;;;;;;;;0.00;0.00;;;;;13.72;100.00;102410.88;5096314;27;45369;-85
2024/01/26 08:02:42;;;;;;;;;0.00;0.00;;;;;13.66;100.00;102407.50;5099106;27;45235;-85
2024/01/26 08:05:08;;;;;;;;;0.00;0.00;;;;;13.66;100.00;102424.03;5094102;27;45312;-85
2024/01/26 08:07:34;;;;;;;;;0.00;0.00;;;;;13.70;100.00;102430.09;5108937;27;45342;-85
2024/01/26 08:10:00;;;;;;;;;0.00;0.00;;;;;13.70;100.00;102433.56;5101269;27;56726;-86
2024/01/26 08:12:25;;;;;;;;;0.00;0.00;;;;;13.71;100.00;102439.69;5079158;27;45443;-85
2024/01/26 08:14:53;;;;;;;;;0.00;0.00;;;;;13.73;100.00;102448.38;5093070;27;45398;-86
2024/01/26 08:17:18;;;;;;;;;0.00;0.00;;;;;13.73;100.00;102441.38;5091948;27;45832;-86
2024/01/26 08:19:44;;;;;;;;;0.00;0.00;;;;;13.83;100.00;102449.94;5095119;27;58766;-86
2024/01/26 08:22:09;;;;;;;;;0.00;0.00;;;;;13.88;100.00;102463.00;5094230;27;45345;-86
2024/01/26 08:24:34;;;;;;;;;0.00;0.00;;;;;13.91;100.00;102470.78;5091528;27;64142;-85
2024/01/26 08:27:00;;;;;;;;;0.00;0.00;;;;;13.90;100.00;102475.16;5087597;27;45341;-87
2024/01/26 08:29:26;;;;;;;;;0.00;0.00;;;;;13.95;100.00;102475.09;5089051;27;46052;-87
2024/01/26 08:31:52;;;;;;;;;0.00;0.00;;;;;13.94;100.00;102476.81;5089233;27;45773;-87
2024/01/26 08:34:17;;;;;;;;;0.00;0.00;;;;;13.90;100.00;102483.00;5084182;27;45679;-86
2024/01/26 08:36:43;;;;;;;;;0.00;0.00;;;;;13.90;100.00;102483.00;5088721;27;45498;-86
2024/01/26 08:39:11;;;;;;;;;0.00;0.00;;;;;13.90;100.00;102482.16;5087006;27;45413;-87
2024/01/26 08:41:37;;;;;;;;;0.00;0.00;;;;;13.86;100.00;102485.72;5095047;27;45440;-85
2024/01/26 08:44:03;;;;;;;;;0.00;0.00;;;;;13.86;100.00;102488.31;5093737;27;45453;-87
2024/01/26 08:46:28;;;;;;;;;0.00;0.00;;;;;13.87;100.00;102493.53;5093717;27;45437;-86
2024/01/26 08:48:54;;;;;;;;;0.00;0.00;;;;;13.89;100.00;102498.72;5093491;27;45451;-86
2024/01/26 08:51:19;;;;;;;;;0.00;0.00;;;;;13.87;100.00;102505.75;5079730;27;46116;-86
2024/01/26 08:53:44;;;;;;;;;0.00;0.00;;;;;13.88;100.00;102510.97;5095923;27;69157;-87
2024/01/26 08:56:10;;;;;;;;;0.00;0.00;;;;;13.85;100.00;102500.53;5088497;27;45402;-85
2024/01/26 08:58:37;;;;;;;;;0.00;0.00;;;;;13.87;100.00;102503.13;5092791;27;45571;-85
2024/01/26 09:01:02;;;;;;;;;0.00;0.00;;;;;13.87;100.00;102504.00;5101655;27;45440;-86
2024/01/26 09:03:27;;;;;;;;;0.00;0.00;;;;;13.87;100.00;102501.41;5087572;27;45416;-86
2024/01/26 09:05:53;;;;;;;;;0.00;0.00;;;;;13.89;100.00;102503.97;5092953;27;45492;-86
2024/01/26 09:08:18;;;;;;;;;0.00;0.00;;;;;13.90;100.00;102505.72;5100140;27;73995;-86
2024/01/26 09:10:43;;;;;;;;;0.00;0.00;;;;;13.93;100.00;102511.78;5116863;27;68865;-85
2024/01/26 09:13:09;;;;;;;;;0.00;0.00;;;;;13.94;100.00;102508.25;5096952;27;50762;-86
2024/01/26 09:15:34;;;;;;;;;0.00;0.00;;;;;13.98;100.00;102503.84;5077054;27;69873;-86
2024/01/26 09:18:01;;;;;;;;;0.00;0.00;;;;;14.01;100.00;102508.19;5091441;27;58532;-85
2024/01/26 09:20:26;;;;;;;;;0.00;0.00;;;;;14.05;100.00;102521.19;5077741;28;45377;-85
2024/01/26 09:22:51;;;;;;;;;0.00;0.00;;;;;14.08;100.00;102513.28;5078909;27;45556;-85
2024/01/26 09:25:17;;;;;;;;;0.00;0.00;;;;;14.12;100.00;102532.44;5092503;27;69585;-86
2024/01/26 09:27:42;;;;;;;;;0.00;0.00;;;;;14.15;100.00;102535.00;5077140;27;48208;-86
2024/01/26 09:30:08;;;;;;;;;0.00;0.00;;;;;14.12;100.00;102528.06;5098347;27;45342;-85
2024/01/26 09:32:34;;;;;;;;;0.00;0.00;;;;;14.06;100.00;102541.25;5090615;27;45389;-85
2024/01/26 09:35:00;;;;;;;;;0.00;0.00;;;;;14.04;100.00;102550.88;5099603;27;45293;-87
2024/01/26 09:37:27;;;;;;;;;0.00;0.00;;;;;14.00;100.00;102543.94;5089771;27;47292;-85
2024/01/26 09:39:52;;;;;;;;;0.00;0.00;;;;;14.00;100.00;102553.56;5090639;27;45547;-86
2024/01/26 09:42:18;;;;;;;;;0.00;0.00;;;;;13.95;100.00;102561.50;5089163;27;45459;-86
2024/01/26 09:44:43;;;;;;;;;0.00;0.00;;;;;13.93;100.00;102565.88;5112935;27;48357;-85
2024/01/26 09:47:13;;;;;;;;;0.00;0.00;;;;;13.92;100.00;102588.56;5092319;27;70406;-86
2024/01/26 09:49:44;;;;;;;;;0.00;0.00;;;;;13.89;100.00;102630.50;5085431;27;45777;-84
2024/01/26 09:52:11;;;;;;;;;0.00;0.00;;;;;13.81;100.00;102614.00;5088943;27;45588;-85
2024/01/26 09:54:37;;;;;;;;;0.50;0.50;;;;;13.54;100.00;102667.56;5087779;27;45448;-88
2024/01/26 09:57:04;;;;;;;;;0.75;0.75;;;;;13.54;100.00;102649.25;5078733;27;47252;-85
2024/01/26 09:59:29;;;;;;;;;0.00;0.00;;;;;13.40;100.00;102651.13;5085801;27;45397;-86
2024/01/26 10:01:54;;;;;;;;;0.00;0.00;;;;;13.33;100.00;102643.34;5096900;27;61110;-85
2024/01/26 10:04:20;;;;;;;;;0.00;0.00;;;;;13.28;100.00;102641.59;5093157;27;45520;-84
2024/01/26 10:06:48;;;;;;;;;0.00;0.00;;;;;13.23;100.00;102661.72;5094580;27;75448;-84
2024/01/26 10:09:14;;;;;;;;;0.00;0.00;;;;;13.17;100.00;102665.25;5091356;27;45475;-84
2024/01/26 10:11:39;;;;;;;;;0.00;0.00;;;;;13.26;100.00;102665.19;5092663;27;45496;-83
2024/01/26 10:14:05;;;;;;;;;0.00;0.00;;;;;13.34;100.00;102672.97;5092065;27;45544;-84
2024/01/26 10:16:30;;;;;;;;;0.00;0.00;;;;;13.42;100.00;102678.13;5086902;27;46017;-84
2024/01/26 10:18:55;;;;;;;;;0.00;0.00;;;;;13.48;100.00;102684.19;5089072;27;48968;-85
2024/01/26 10:21:22;;;;;;;;;0.00;0.00;;;;;13.51;100.00;102673.66;5092126;27;69520;-84
2024/01/26 10:23:47;;;;;;;;;0.00;0.00;;;;;13.60;100.00;102679.72;5079828;27;45641;-85
2024/01/26 10:26:14;;;;;;;;;0.00;0.00;;;;;13.67;100.00;102692.72;5090573;27;45418;-85
2024/01/26 10:28:40;;;;;;;;;0.00;0.00;;;;;13.71;100.00;102702.25;5133967;27;45756;-84
2024/01/26 10:31:05;;;;;;;;;0.00;0.00;;;;;13.74;100.00;102709.19;5109061;27;45479;-85
2024/01/26 10:33:33;;;;;;;;;0.00;0.00;;;;;13.72;100.00;102719.69;5103683;27;45415;-85
2024/01/26 10:36:00;;;;;;;;;0.00;0.00;;;;;13.77;100.00;102724.88;5076715;27;46725;-84
2024/01/26 10:38:28;;;;;;;;;0.00;0.00;;;;;13.79;100.00;102725.72;5093354;27;45554;-85
2024/01/26 10:41:00;;;;;;;;;0.00;0.00;;;;;13.84;100.00;102721.31;5096001;27;45420;-85
2024/01/26 10:43:26;;;;;;;;;0.00;0.00;;;;;13.87;100.00;102716.06;5078915;27;45647;-84
2024/01/26 10:45:52;;;;;;;;;0.00;0.00;;;;;13.97;100.00;102719.41;5094158;27;72543;-84
2024/01/26 10:48:18;;;;;;;;;0.00;0.00;;;;;14.11;100.00;102727.09;5092453;27;45430;-84
2024/01/26 10:50:43;;;;;;;;;0.00;0.00;;;;;14.28;100.00;102740.00;5094028;27;45305;-83
2024/01/26 10:53:10;;;;;;;;;0.00;0.00;;;;;14.46;100.00;102744.13;5103938;27;68489;-85
2024/01/26 10:55:35;;;;;;;;;0.00;0.00;;;;;14.50;100.00;102749.34;5092146;27;61601;-84
2024/01/26 10:58:01;;;;;;;;;0.00;0.00;;;;;14.53;100.00;102754.50;5096448;27;45382;-84
2024/01/26 11:00:27;;;;;;;;;0.00;0.00;;;;;14.66;100.00;102743.91;5086232;27;45921;-85
2024/01/26 11:02:53;;;;;;;;;0.00;0.00;;;;;14.71;100.00;102756.06;5094843;27;69700;-83
2024/01/26 11:05:18;;;;;;;;;0.00;0.00;;;;;14.86;100.00;102760.22;5074552;28;46407;-86
2024/01/26 11:07:44;;;;;;;;;0.00;0.00;;;;;15.04;100.00;102768.69;5104885;27;45530;-86
2024/01/26 11:10:12;;;;;;;;;1.00;0.00;;;;;15.32;100.00;102763.00;5116011;27;45400;-84